createdAt,value
2018-06-25T00:01:08.875Z,7.17
2018-06-25T00:03:38.391Z,8.18
2018-06-25T00:06:07.991Z,8.38
2018-06-25T00:08:37.093Z,7.10
2018-06-25T00:11:06.368Z,7.25
2018-06-25T00:13:35.867Z,8.13
2018-06-25T00:16:04.873Z,7.35
2018-06-25T00:18:34.094Z,7.97
2018-06-25T00:21:03.125Z,7.35
2018-06-25T00:23:32.284Z,7.55
2018-06-25T00:26:01.441Z,8.05
2018-06-25T00:28:30.551Z,8.18
2018-06-25T00:30:59.664Z,8.03
2018-06-25T00:33:28.648Z,8.23
2018-06-25T00:35:57.751Z,7.45
2018-06-25T00:38:26.816Z,8.70
2018-06-25T00:40:56.535Z,8.10
2018-06-25T00:43:26.305Z,7.50
2018-06-25T00:45:55.347Z,8.68
2018-06-25T00:48:24.366Z,9.00
2018-06-25T00:50:53.940Z,8.08
2018-06-25T00:53:23.070Z,8.75
2018-06-25T00:55:53.366Z,7.53
2018-06-25T00:58:24.830Z,7.78
2018-06-25T01:00:55.049Z,7.05
2018-06-25T01:03:24.261Z,9.10
2018-06-25T01:05:53.399Z,8.03
2018-06-25T01:08:22.334Z,8.20
2018-06-25T01:10:51.440Z,8.40
2018-06-25T01:13:20.596Z,8.23
2018-06-25T01:15:49.640Z,8.73
2018-06-25T01:18:18.789Z,8.48
2018-06-25T01:20:48.340Z,8.63
2018-06-25T01:23:17.578Z,6.65
2018-06-25T01:25:46.705Z,8.63
2018-06-25T01:28:15.809Z,8.15
2018-06-25T01:30:45.862Z,8.03
2018-06-25T01:33:15.160Z,8.05
2018-06-25T01:35:44.527Z,7.87
2018-06-25T01:38:14.110Z,9.15
2018-06-25T01:40:43.845Z,7.92
2018-06-25T01:43:12.835Z,8.00
2018-06-25T01:45:42.257Z,7.90
2018-06-25T01:48:11.233Z,8.28
2018-06-25T01:50:40.433Z,8.25
2018-06-25T01:53:10.420Z,8.70
2018-06-25T01:55:39.512Z,7.20
2018-06-25T01:58:08.532Z,7.50
2018-06-25T02:00:37.599Z,6.20
2018-06-25T02:03:06.839Z,7.70
2018-06-25T02:05:35.909Z,8.00
2018-06-25T02:08:05.121Z,7.33
2018-06-25T02:10:34.294Z,8.68
2018-06-25T02:13:03.427Z,7.33
2018-06-25T02:15:32.480Z,8.03
2018-06-25T02:18:02.019Z,8.05
2018-06-25T02:20:31.213Z,7.58
2018-06-25T02:23:00.181Z,6.95
2018-06-25T02:25:29.329Z,7.35
2018-06-25T02:27:58.359Z,7.47
2018-06-25T02:30:27.733Z,7.78
2018-06-25T02:32:56.943Z,8.10
2018-06-25T02:35:26.102Z,8.50
2018-06-25T02:37:55.185Z,7.78
2018-06-25T02:40:24.943Z,8.45
2018-06-25T02:42:53.980Z,8.40
2018-06-25T02:45:23.288Z,8.15
2018-06-25T02:47:52.329Z,9.68
2018-06-25T02:50:21.498Z,9.03
2018-06-25T02:52:51.308Z,7.70
2018-06-25T02:55:20.385Z,9.93
2018-06-25T02:57:49.379Z,8.28
2018-06-25T03:00:18.489Z,8.78
2018-06-25T03:02:47.564Z,8.70
2018-06-25T03:05:16.729Z,9.13
2018-06-25T03:07:45.960Z,7.47
2018-06-25T03:10:15.073Z,6.45
2018-06-25T03:12:44.128Z,6.97
2018-06-25T03:15:13.676Z,6.20
2018-06-25T03:17:42.663Z,6.50
2018-06-25T03:20:13.073Z,6.75
2018-06-25T03:22:42.413Z,6.30
2018-06-25T03:25:11.877Z,6.00
2018-06-25T03:27:41.169Z,6.95
2018-06-25T03:30:10.794Z,6.20
2018-06-25T03:32:40.363Z,6.75
2018-06-25T03:35:09.489Z,6.78
2018-06-25T03:37:38.792Z,7.47
2018-06-25T03:40:07.815Z,6.72
2018-06-25T03:42:36.944Z,7.75
2018-06-25T03:45:05.972Z,7.92
2018-06-25T03:47:34.944Z,7.95
2018-06-25T03:50:04.104Z,6.92
2018-06-25T03:52:33.222Z,7.80
2018-06-25T03:55:02.256Z,6.75
2018-06-25T03:57:31.780Z,7.00
2018-06-25T04:00:01.341Z,6.87
2018-06-25T04:02:31.103Z,7.28
2018-06-25T04:05:00.883Z,7.45
2018-06-25T04:07:29.888Z,6.30
2018-06-25T04:09:58.860Z,7.45
2018-06-25T04:12:27.853Z,7.45
2018-06-25T04:14:57.361Z,6.75
2018-06-25T04:17:26.438Z,7.60
2018-06-25T04:19:55.585Z,7.25
2018-06-25T04:22:25.037Z,7.55
2018-06-25T04:24:54.764Z,7.03
2018-06-25T04:27:24.161Z,7.55
2018-06-25T04:29:53.809Z,7.70
2018-06-25T04:32:22.988Z,6.58
2018-06-25T04:34:52.671Z,6.45
2018-06-25T04:37:22.285Z,7.20
2018-06-25T04:39:51.380Z,6.50
2018-06-25T04:42:21.021Z,7.00
2018-06-25T04:44:50.093Z,6.33
2018-06-25T04:47:19.103Z,5.75
2018-06-25T04:49:47.779Z,7.05
2018-06-25T04:52:17.528Z,5.62
2018-06-25T04:54:46.592Z,5.03
2018-06-25T04:57:16.439Z,6.12
2018-06-25T04:59:45.935Z,6.60
2018-06-25T05:02:15.199Z,5.50
2018-06-25T05:04:45.050Z,5.37
2018-06-25T05:07:14.185Z,6.45
2018-06-25T05:09:43.288Z,5.50
2018-06-25T05:12:12.401Z,6.15
2018-06-25T05:14:42.608Z,5.37
2018-06-25T05:17:11.709Z,6.60
2018-06-25T05:19:40.798Z,5.45
2018-06-25T05:22:10.221Z,5.35
2018-06-25T05:24:39.897Z,5.30
2018-06-25T05:27:09.090Z,5.80
2018-06-25T05:29:38.924Z,6.62
2018-06-25T05:32:07.993Z,7.20
2018-06-25T05:34:37.112Z,7.05
2018-06-25T05:37:06.603Z,6.00
2018-06-25T05:39:35.633Z,5.53
2018-06-25T05:42:05.860Z,5.22
2018-06-25T05:44:34.948Z,6.42
2018-06-25T05:47:04.024Z,4.90
2018-06-25T05:49:33.094Z,6.20
2018-06-25T05:52:02.156Z,5.40
2018-06-25T05:54:31.281Z,5.75
2018-06-25T05:57:00.284Z,5.72
2018-06-25T05:59:29.308Z,5.80
2018-06-25T06:01:58.383Z,6.10
2018-06-25T06:04:27.357Z,5.53
2018-06-25T06:06:56.695Z,5.55
2018-06-25T06:09:26.192Z,6.08
2018-06-25T06:11:55.160Z,6.55
2018-06-25T06:14:24.268Z,6.08
2018-06-25T06:16:53.518Z,6.58
2018-06-25T06:19:22.986Z,6.55
2018-06-25T06:21:53.381Z,6.28
2018-06-25T06:24:22.820Z,6.25
2018-06-25T06:26:52.322Z,6.08
2018-06-25T06:29:21.400Z,5.90
2018-06-25T06:31:50.414Z,6.12
2018-06-25T06:34:19.473Z,6.15
2018-06-25T06:36:48.684Z,5.20
2018-06-25T06:39:17.766Z,5.50
2018-06-25T06:41:47.049Z,5.47
2018-06-25T06:44:16.472Z,6.30
2018-06-25T06:46:45.469Z,4.55
2018-06-25T06:49:15.010Z,5.87
2018-06-25T06:51:43.964Z,4.90
2018-06-25T06:54:13.216Z,5.28
2018-06-25T06:56:42.365Z,5.00
2018-06-25T06:59:11.500Z,5.12
2018-06-25T07:01:40.556Z,5.20
2018-06-25T07:04:09.637Z,5.15
2018-06-25T07:06:38.749Z,4.07
2018-06-25T07:09:10.965Z,5.80
2018-06-25T07:11:40.123Z,4.00
2018-06-25T07:14:09.868Z,5.17
2018-06-25T07:16:40.204Z,4.93
2018-06-25T07:19:09.990Z,4.50
2018-06-25T07:21:39.412Z,3.83
2018-06-25T07:24:08.561Z,4.50
2018-06-25T07:26:37.627Z,3.63
2018-06-25T07:29:06.773Z,4.40
2018-06-25T07:31:36.633Z,3.50
2018-06-25T07:34:06.677Z,4.03
2018-06-25T07:36:35.776Z,3.83
2018-06-25T07:39:07.208Z,4.20
2018-06-25T07:41:36.309Z,3.90
2018-06-25T07:44:05.394Z,3.20
2018-06-25T07:46:34.624Z,4.93
2018-06-25T07:49:03.693Z,4.20
2018-06-25T07:51:33.529Z,4.17
2018-06-25T07:54:03.130Z,4.20
2018-06-25T07:56:32.256Z,2.77
2018-06-25T07:59:01.307Z,4.00
2018-06-25T08:01:31.376Z,4.33
2018-06-25T08:04:00.432Z,3.57
2018-06-25T08:06:29.633Z,3.10
2018-06-25T08:08:58.742Z,3.43
2018-06-25T08:11:27.817Z,2.70
2018-06-25T08:13:56.916Z,2.70
2018-06-25T08:16:25.992Z,2.10
2018-06-25T08:18:55.845Z,1.87
2018-06-25T08:21:25.400Z,2.13
2018-06-25T08:23:54.508Z,2.73
2018-06-25T08:26:24.081Z,2.50
2018-06-25T08:28:53.224Z,2.50
2018-06-25T08:31:22.324Z,2.90
2018-06-25T08:33:51.905Z,2.80
2018-06-25T08:36:21.140Z,2.83
2018-06-25T08:38:50.196Z,2.60
2018-06-25T08:41:19.332Z,4.37
2018-06-25T08:43:48.872Z,3.00
2018-06-25T08:46:17.993Z,2.90
2018-06-25T08:48:47.136Z,2.67
2018-06-25T08:51:17.053Z,2.83
2018-06-25T08:53:46.119Z,3.33
2018-06-25T08:56:15.188Z,3.07
2018-06-25T08:58:45.109Z,2.43
2018-06-25T09:01:14.263Z,6.80
2018-06-25T09:03:43.688Z,6.13
2018-06-25T09:06:13.173Z,2.80
2018-06-25T09:08:42.300Z,4.10
2018-06-25T09:11:11.301Z,2.10
2018-06-25T09:13:41.073Z,2.00
2018-06-25T09:16:10.405Z,3.00
2018-06-25T09:18:39.517Z,2.30
2018-06-25T09:21:08.592Z,2.60
2018-06-25T09:23:37.821Z,2.00
2018-06-25T09:26:06.902Z,1.93
2018-06-25T09:28:36.015Z,2.50
2018-06-25T09:31:05.000Z,2.00
2018-06-25T09:33:34.645Z,1.53
2018-06-25T09:36:03.808Z,1.47
2018-06-25T09:38:32.903Z,1.60
2018-06-25T09:41:02.770Z,2.13
2018-06-25T09:43:31.982Z,2.10
2018-06-25T09:46:01.126Z,2.07
2018-06-25T09:48:30.183Z,1.87
2018-06-25T09:50:59.368Z,2.07
2018-06-25T09:53:28.535Z,2.17
2018-06-25T09:55:57.571Z,2.00
2018-06-25T09:58:26.686Z,2.20
2018-06-25T10:01:01.536Z,2.27
2018-06-25T10:03:30.708Z,2.43
2018-06-25T10:05:59.808Z,2.67
2018-06-25T10:08:29.529Z,1.70
2018-06-25T10:10:58.521Z,1.40
2018-06-25T10:13:27.611Z,1.70
2018-06-25T10:15:56.656Z,1.70
2018-06-25T10:18:25.771Z,1.20
2018-06-25T10:20:54.899Z,1.20
2018-06-25T10:23:24.166Z,1.10
2018-06-25T10:25:53.407Z,1.90
2018-06-25T10:28:22.820Z,1.33
2018-06-25T10:30:52.825Z,1.13
2018-06-25T10:33:21.908Z,1.30
2018-06-25T10:35:51.024Z,1.00
2018-06-25T10:38:20.121Z,1.23
2018-06-25T10:40:49.572Z,1.13
2018-06-25T10:43:19.103Z,2.07
2018-06-25T10:45:48.693Z,1.73
2018-06-25T10:48:17.836Z,2.13
2018-06-25T10:50:47.113Z,1.70
2018-06-25T10:53:17.559Z,1.23
2018-06-25T10:55:46.537Z,1.10
2018-06-25T10:58:15.725Z,0.80
2018-06-25T11:00:44.845Z,1.03
2018-06-25T11:03:14.220Z,2.33
2018-06-25T11:05:43.425Z,9.67
2018-06-25T11:08:12.395Z,2.10
2018-06-25T11:10:41.849Z,1.00
2018-06-25T11:13:10.876Z,0.97
2018-06-25T11:15:40.013Z,0.83
2018-06-25T11:18:09.001Z,1.20
2018-06-25T11:20:39.735Z,1.93
2018-06-25T11:23:08.845Z,0.70
2018-06-25T11:25:37.892Z,1.13
2018-06-25T11:28:08.201Z,1.00
2018-06-25T11:30:37.311Z,0.83
2018-06-25T11:33:06.417Z,0.90
2018-06-25T11:35:36.786Z,0.80
2018-06-25T11:38:06.349Z,1.07
2018-06-25T11:40:35.463Z,0.80
2018-06-25T11:43:04.556Z,1.00
2018-06-25T11:45:33.985Z,0.60
2018-06-25T11:48:03.648Z,1.03
2018-06-25T11:50:32.641Z,1.53
2018-06-25T11:53:02.293Z,1.00
2018-06-25T11:55:31.347Z,1.00
2018-06-25T11:58:00.460Z,1.00
2018-06-25T12:00:29.563Z,1.17
2018-06-25T12:02:58.749Z,0.90
2018-06-25T12:05:27.844Z,1.50
2018-06-25T12:07:57.064Z,0.90
2018-06-25T12:10:26.157Z,0.83
2018-06-25T12:12:55.228Z,1.03
2018-06-25T12:15:24.347Z,0.93
2018-06-25T12:17:53.409Z,0.83
2018-06-25T12:20:22.736Z,0.80
2018-06-25T12:22:52.540Z,1.07
2018-06-25T12:25:21.615Z,1.07
2018-06-25T12:27:51.380Z,0.83
2018-06-25T12:30:20.418Z,0.80
2018-06-25T12:32:49.548Z,1.20
2018-06-25T12:35:19.014Z,0.87
2018-06-25T12:37:48.066Z,1.00
2018-06-25T12:40:17.205Z,1.10
2018-06-25T12:42:46.673Z,1.00
2018-06-25T12:45:15.831Z,0.80
2018-06-25T12:47:44.905Z,0.87
2018-06-25T12:50:14.033Z,0.63
2018-06-25T12:52:43.088Z,1.20
2018-06-25T12:55:12.372Z,0.77
2018-06-25T12:57:42.197Z,1.13
2018-06-25T13:00:11.440Z,1.20
2018-06-25T13:02:41.332Z,0.80
2018-06-25T13:05:10.424Z,0.60
2018-06-25T13:07:40.228Z,0.80
2018-06-25T13:10:09.466Z,1.00
2018-06-25T13:12:38.532Z,1.20
2018-06-25T13:15:07.764Z,0.90
2018-06-25T13:17:37.056Z,0.77
2018-06-25T13:20:06.052Z,0.77
2018-06-25T13:22:35.120Z,1.03
2018-06-25T13:25:04.306Z,0.87
2018-06-25T13:27:33.475Z,0.70
2018-06-25T13:30:02.784Z,0.83
2018-06-25T13:32:32.548Z,0.77
2018-06-25T13:35:01.654Z,0.70
2018-06-25T13:37:30.680Z,0.80
2018-06-25T13:39:59.711Z,1.30
2018-06-25T13:42:29.098Z,0.80
2018-06-25T13:44:58.516Z,0.90
2018-06-25T13:47:27.581Z,0.60
2018-06-25T13:49:56.937Z,1.00
2018-06-25T13:52:25.885Z,1.00
2018-06-25T13:54:55.000Z,0.77
2018-06-25T13:57:24.092Z,0.73
2018-06-25T13:59:53.700Z,0.73
2018-06-25T14:02:23.376Z,1.20
2018-06-25T14:04:52.391Z,0.73
2018-06-25T14:07:22.456Z,1.17
2018-06-25T14:09:51.515Z,1.20
2018-06-25T14:12:20.501Z,0.90
2018-06-25T14:14:49.649Z,0.83
2018-06-25T14:17:18.688Z,1.10
2018-06-25T14:19:47.680Z,0.93
2018-06-25T14:22:16.865Z,0.87
2018-06-25T14:24:54.205Z,1.20
2018-06-25T14:27:23.342Z,0.70
2018-06-25T14:29:52.441Z,0.87
2018-06-25T14:32:26.734Z,1.10
2018-06-25T14:35:00.967Z,0.70
2018-06-25T14:37:30.501Z,1.00
2018-06-25T14:40:00.168Z,0.60
2018-06-25T14:42:29.209Z,0.83
2018-06-25T14:44:58.282Z,0.90
2018-06-25T14:47:28.343Z,0.80
2018-06-25T14:49:57.376Z,1.07
2018-06-25T14:52:26.422Z,0.70
2018-06-25T14:54:55.857Z,0.87
2018-06-25T14:57:24.787Z,0.80
2018-06-25T14:59:53.894Z,0.90
2018-06-25T15:02:22.984Z,0.87
2018-06-25T15:04:52.123Z,0.60
2018-06-25T15:07:20.775Z,0.60
2018-06-25T15:09:49.752Z,0.80
2018-06-25T15:12:18.751Z,0.80
2018-06-25T15:14:48.165Z,0.70
2018-06-25T15:17:17.147Z,0.70
2018-06-25T15:19:46.012Z,0.60
2018-06-25T15:22:15.247Z,0.90
2018-06-25T15:24:44.360Z,1.00
2018-06-25T15:27:13.917Z,0.90
2018-06-25T15:29:42.953Z,0.97
2018-06-25T15:32:12.517Z,2.10
2018-06-25T15:34:41.961Z,1.20
2018-06-25T15:37:10.928Z,1.70
2018-06-25T15:39:40.966Z,0.80
2018-06-25T15:42:10.018Z,0.90
2018-06-25T15:44:39.015Z,0.60
2018-06-25T15:47:08.153Z,0.60
2018-06-25T15:49:37.117Z,0.90
2018-06-25T15:52:06.217Z,0.83
2018-06-25T15:54:35.189Z,0.93
2018-06-25T15:57:05.359Z,0.50
2018-06-25T15:59:34.739Z,0.63
2018-06-25T16:02:04.061Z,0.70
2018-06-25T16:04:33.901Z,0.80
2018-06-25T16:07:03.648Z,1.80
2018-06-25T16:09:32.780Z,1.17
2018-06-25T16:12:01.931Z,0.50
2018-06-25T16:14:31.228Z,1.63
2018-06-25T16:17:00.336Z,0.90
2018-06-25T16:19:29.459Z,0.50
2018-06-25T16:21:58.945Z,0.63
2018-06-25T16:24:28.405Z,0.60
2018-06-25T16:26:57.767Z,0.53
2018-06-25T16:29:27.029Z,0.77
2018-06-25T16:31:56.878Z,0.90
2018-06-25T16:34:25.961Z,0.80
2018-06-25T16:36:55.025Z,0.60
2018-06-25T16:39:24.524Z,1.00
2018-06-25T16:41:53.667Z,0.60
2018-06-25T16:44:22.752Z,0.90
2018-06-25T16:46:52.240Z,0.70
2018-06-25T16:49:21.673Z,0.83
2018-06-25T16:51:50.720Z,0.50
2018-06-25T16:54:19.968Z,1.40
2018-06-25T16:56:48.990Z,1.20
2018-06-25T16:59:18.158Z,1.80
2018-06-25T17:01:47.519Z,1.20
2018-06-25T17:04:16.452Z,1.70
2018-06-25T17:06:45.744Z,1.30
2018-06-25T17:09:14.756Z,0.67
2018-06-25T17:11:44.072Z,0.73
2018-06-25T17:14:13.113Z,0.50
2018-06-25T17:16:42.298Z,0.73
2018-06-25T17:19:11.536Z,0.60
2018-06-25T17:21:40.681Z,0.53
2018-06-25T17:24:09.895Z,0.70
2018-06-25T17:26:39.115Z,1.73
2018-06-25T17:29:08.172Z,0.70
2018-06-25T17:31:37.604Z,1.00
2018-06-25T17:34:06.856Z,0.60
2018-06-25T17:36:36.308Z,0.60
2018-06-25T17:39:07.872Z,0.67
2018-06-25T17:41:36.881Z,0.60
2018-06-25T17:44:06.048Z,0.50
2018-06-25T17:46:35.152Z,0.60
2018-06-25T17:49:04.237Z,0.50
2018-06-25T17:51:33.331Z,0.80
2018-06-25T17:54:02.447Z,0.50
2018-06-25T17:56:31.007Z,0.77
2018-06-25T17:59:00.589Z,0.60
2018-06-25T18:01:29.639Z,9.90
2018-06-25T18:03:58.761Z,3.97
2018-06-25T18:06:27.216Z,17.33
2018-06-25T18:08:56.265Z,1.10
2018-06-25T18:11:25.297Z,0.77
2018-06-25T18:13:54.344Z,0.90
2018-06-25T18:16:23.388Z,0.93
2018-06-25T18:18:52.864Z,0.60
2018-06-25T18:21:21.941Z,0.50
2018-06-25T18:23:51.076Z,0.97
2018-06-25T18:26:20.812Z,1.00
2018-06-25T18:28:50.489Z,1.40
2018-06-25T18:31:19.550Z,1.63
2018-06-25T18:33:48.768Z,1.73
2018-06-25T18:36:17.860Z,1.00
2018-06-25T18:38:46.956Z,0.70
2018-06-25T18:41:16.072Z,0.80
2018-06-25T18:43:45.667Z,1.33
2018-06-25T18:46:15.462Z,0.90
2018-06-25T18:48:44.771Z,0.73
2018-06-25T18:51:14.029Z,0.93
2018-06-25T18:53:43.217Z,0.90
2018-06-25T18:56:12.230Z,1.47
2018-06-25T18:58:41.363Z,0.87
2018-06-25T19:01:10.964Z,1.30
2018-06-25T19:03:39.985Z,0.87
2018-06-25T19:06:08.944Z,2.03
2018-06-25T19:08:38.369Z,0.83
2018-06-25T19:11:07.349Z,0.80
2018-06-25T19:13:36.313Z,1.20
2018-06-25T19:16:05.456Z,1.17
2018-06-25T19:18:34.584Z,1.00
2018-06-25T19:21:04.252Z,0.87
2018-06-25T19:23:33.743Z,0.90
2018-06-25T19:26:03.375Z,2.37
2018-06-25T19:28:32.416Z,5.50
2018-06-25T19:31:01.707Z,4.87
2018-06-25T19:33:30.873Z,3.93
2018-06-25T19:36:00.025Z,10.87
2018-06-25T19:38:29.144Z,10.63
2018-06-25T19:40:58.145Z,3.03
2018-06-25T19:43:27.753Z,1.73
2018-06-25T19:45:57.714Z,2.80
2018-06-25T19:48:27.365Z,2.80
2018-06-25T19:50:56.577Z,1.10
2018-06-25T19:53:25.628Z,1.00
2018-06-25T19:55:55.212Z,1.20
2018-06-25T19:58:24.711Z,1.03
2018-06-25T20:00:54.633Z,1.13
2018-06-25T20:03:23.766Z,1.20
2018-06-25T20:05:52.870Z,0.95
2018-06-25T20:08:22.011Z,1.20
2018-06-25T20:10:51.125Z,1.27
2018-06-25T20:13:20.563Z,0.90
2018-06-25T20:15:49.752Z,1.13
2018-06-25T20:18:18.867Z,1.15
2018-06-25T20:20:48.249Z,1.13
2018-06-25T20:23:17.741Z,5.23
2018-06-25T20:25:46.960Z,5.17
2018-06-25T20:28:16.037Z,7.03
2018-06-25T20:30:45.263Z,7.20
2018-06-25T20:33:14.598Z,7.05
2018-06-25T20:35:44.030Z,6.67
2018-06-25T20:38:13.249Z,4.33
2018-06-25T20:40:42.271Z,2.70
2018-06-25T20:43:11.639Z,3.00
2018-06-25T20:45:40.733Z,2.60
2018-06-25T20:48:10.325Z,3.55
2018-06-25T20:50:39.544Z,1.50
2018-06-25T20:53:08.743Z,1.50
2018-06-25T20:55:37.905Z,2.20
2018-06-25T20:58:07.356Z,1.65
2018-06-25T21:00:37.516Z,2.10
2018-06-25T21:03:06.673Z,1.60
2018-06-25T21:05:35.769Z,1.47
2018-06-25T21:08:04.850Z,1.60
2018-06-25T21:10:33.956Z,1.50
2018-06-25T21:13:03.040Z,1.92
2018-06-25T21:15:32.921Z,1.52
2018-06-25T21:18:01.926Z,1.50
2018-06-25T21:20:31.052Z,1.32
2018-06-25T21:23:00.112Z,1.40
2018-06-25T21:25:29.274Z,1.60
2018-06-25T21:27:58.320Z,1.50
2018-06-25T21:30:27.434Z,1.80
2018-06-25T21:32:56.517Z,1.45
2018-06-25T21:35:25.681Z,2.05
2018-06-25T21:37:55.188Z,1.50
2018-06-25T21:40:24.987Z,1.57
2018-06-25T21:42:54.103Z,1.25
2018-06-25T21:45:23.120Z,1.50
2018-06-25T21:47:52.101Z,1.50
2018-06-25T21:50:21.305Z,1.60
2018-06-25T21:52:50.763Z,1.72
2018-06-25T21:55:20.083Z,1.85
2018-06-25T21:57:49.717Z,2.20
2018-06-25T22:00:18.861Z,1.90
2018-06-25T22:02:48.025Z,1.45
2018-06-25T22:05:17.082Z,1.80
2018-06-25T22:07:46.933Z,1.98
2018-06-25T22:10:16.433Z,1.70
2018-06-25T22:12:45.670Z,1.60
2018-06-25T22:15:15.347Z,1.90
2018-06-25T22:17:44.533Z,1.77
2018-06-25T22:20:13.622Z,1.65
2018-06-25T22:22:42.770Z,2.33
2018-06-25T22:25:11.724Z,1.70
2018-06-25T22:27:40.736Z,1.80
2018-06-25T22:30:10.125Z,2.00
2018-06-25T22:32:39.089Z,1.30
2018-06-25T22:35:08.178Z,1.98
2018-06-25T22:37:37.300Z,1.90
2018-06-25T22:40:06.560Z,2.00
2018-06-25T22:42:37.080Z,2.77
2018-06-25T22:45:06.307Z,2.00
2018-06-25T22:47:35.416Z,2.02
2018-06-25T22:50:04.733Z,2.40
2018-06-25T22:52:33.914Z,1.82
2018-06-25T22:55:03.006Z,1.80
2018-06-25T22:57:31.964Z,2.12
2018-06-25T23:00:01.097Z,2.02
2018-06-25T23:02:30.279Z,2.00
2018-06-25T23:04:59.601Z,2.00
2018-06-25T23:07:28.681Z,2.20
2018-06-25T23:09:57.883Z,2.87
2018-06-25T23:12:27.792Z,2.30
2018-06-25T23:14:56.868Z,2.10
2018-06-25T23:17:26.818Z,2.62
2018-06-25T23:19:55.889Z,2.35
2018-06-25T23:22:25.220Z,1.87
2018-06-25T23:24:54.397Z,2.00
2018-06-25T23:27:23.484Z,2.58
2018-06-25T23:29:52.584Z,2.27
2018-06-25T23:32:21.659Z,2.33
2018-06-25T23:34:50.776Z,2.33
2018-06-25T23:37:19.784Z,2.50
2018-06-25T23:39:49.636Z,2.20
2018-06-25T23:42:18.657Z,2.05
2018-06-25T23:44:47.744Z,2.45
2018-06-25T23:47:16.920Z,2.02
2018-06-25T23:49:46.657Z,2.58
2018-06-25T23:52:15.770Z,2.40
2018-06-25T23:54:44.940Z,2.47
2018-06-25T23:57:14.330Z,3.00
2018-06-25T23:59:43.464Z,2.47
